Time;durP1;ratioP1;P1;durP2;ratioP2;P2;SDS_P1;SDS_P2;PMS_P1;PMS_P2;Temp;Humidity;BMP_temperature;BMP_pressure;BME280_temperature;BME280_humidity;BME280_pressure;Samples;Min_cycle;Max_cycle;Signal;HPM_P1;HPM_P2
2020/12/13 00:00:39;;;;;;;;;;;;;;;;;;5029994;28;19919;-75
2020/12/13 00:03:05;;;;;;;;;;;;;;;;;;5030088;28;19913;-75
2020/12/13 00:05:31;;;;;;;;;;;;;;;;;;5031093;28;19963;-75
2020/12/13 00:07:57;;;;;;;;;;;;;;;;;;5037092;28;19917;-75
2020/12/13 00:10:23;;;;;;;;;;;;;;;;;;5051582;28;19909;-75
2020/12/13 00:12:49;;;;;;;;;;;;;;;;;;5036542;28;19909;-75
2020/12/13 00:15:15;;;;;;;;;;;;;;;;;;5034897;28;20367;-75
2020/12/13 00:17:41;;;;;;;;;;;;;;;;;;5029941;28;20012;-75
2020/12/13 00:20:07;;;;;;;;;;;;;;;;;;5029945;28;19944;-74
2020/12/13 00:22:33;;;;;;;;;;;;;;;;;;5029938;28;19909;-75
2020/12/13 00:24:59;;;;;;;;;;;;;;;;;;5029912;28;19967;-74
2020/12/13 00:27:25;;;;;;;;;;;;;;;;;;5029428;28;19913;-74
2020/12/13 00:29:51;;;;;;;;;;;;;;;;;;5029865;28;19913;-74
2020/12/13 00:32:17;;;;;;;;;;;;;;;;;;5030065;28;20351;-74
2020/12/13 00:34:43;;;;;;;;;;;;;;;;;;5029859;28;19916;-74
2020/12/13 00:37:09;;;;;;;;;;;;;;;;;;5041067;28;19931;-74
2020/12/13 00:39:38;;;;;;;;;;;;;;;;;;5049352;28;20015;-74
2020/12/13 00:42:04;;;;;;;;;;;;;;;;;;5032469;28;19916;-74
2020/12/13 00:44:29;;;;;;;;;;;;;;;;;;5032447;28;20282;-74
2020/12/13 00:46:55;;;;;;;;;;;;;;;;;;5033647;28;20452;-74
2020/12/13 00:49:21;;;;;;;;;;;;;;;;;;5033527;28;20342;-74
2020/12/13 00:51:47;;;;;;;;;;;;;;;;;;5033880;28;20379;-74
2020/12/13 00:54:13;;;;;;;;;;;;;;;;;;5033501;28;19909;-74
2020/12/13 00:56:39;;;;;;;;;;;;;;;;;;5033602;28;19909;-74
2020/12/13 00:59:05;;;;;;;;;;;;;;;;;;5034343;28;19956;-74
2020/12/13 01:01:31;;;;;;;;;;;;;;;;;;5033335;28;19913;-74
2020/12/13 01:03:57;;;;;;;;;;;;;;;;;;5033394;28;20036;-74
2020/12/13 01:06:23;;;;;;;;;;;;;;;;;;5034788;28;19979;-74
2020/12/13 01:08:49;;;;;;;;;;;;;;;;;;5044315;28;19909;-74
2020/12/13 01:11:15;;;;;;;;;;;;;;;;;;5042497;28;19952;-74
2020/12/13 01:13:41;;;;;;;;;;;;;;;;;;5034233;28;19910;-73
2020/12/13 01:16:07;;;;;;;;;;;;;;;;;;5033257;28;19913;-74
2020/12/13 01:18:32;;;;;;;;;;;;;;;;;;5032846;28;19913;-74
2020/12/13 01:20:58;;;;;;;;;;;;;;;;;;5032722;28;19956;-74
2020/12/13 01:23:24;;;;;;;;;;;;;;;;;;5033011;28;20000;-74
2020/12/13 01:25:50;;;;;;;;;;;;;;;;;;5033308;28;19916;-74
2020/12/13 01:28:16;;;;;;;;;;;;;;;;;;5032947;28;19917;-74
2020/12/13 01:30:42;;;;;;;;;;;;;;;;;;5032804;28;19933;-74
2020/12/13 01:33:08;;;;;;;;;;;;;;;;;;5032832;28;19995;-74
2020/12/13 01:35:34;;;;;;;;;;;;;;;;;;5032733;28;20128;-74
2020/12/13 01:38:00;;;;;;;;;;;;;;;;;;5037307;28;20395;-74
2020/12/13 01:40:26;;;;;;;;;;;;;;;;;;5048450;28;19960;-74
2020/12/13 01:42:52;;;;;;;;;;;;;;;;;;5032829;28;19962;-74
2020/12/13 01:45:21;;;;;;;;;;;;;;;;;;5032561;28;20013;-74
2020/12/13 01:47:50;;;;;;;;;;;;;;;;;;5032385;28;19906;-74
2020/12/13 01:50:37;;;;;;;;;;;;;;;;;;5032324;28;19909;-74
2020/12/13 01:53:17;;;;;;;;;;;;;;;;;;5032419;28;19952;-74
2020/12/13 01:55:42;;;;;;;;;;;;;;;;;;5031446;28;20010;-74
2020/12/13 01:58:08;;;;;;;;;;;;;;;;;;5032162;28;20387;-74
2020/12/13 02:00:34;;;;;;;;;;;;;;;;;;5032326;28;19967;-73
2020/12/13 02:03:00;;;;;;;;;;;;;;;;;;5032564;28;19992;-74
2020/12/13 02:05:26;;;;;;;;;;;;;;;;;;5032582;28;20366;-74
2020/12/13 02:07:52;;;;;;;;;;;;;;;;;;5035540;28;19967;-74
2020/12/13 02:10:18;;;;;;;;;;;;;;;;;;5049404;28;20330;-74
2020/12/13 02:12:44;;;;;;;;;;;;;;;;;;5031957;28;20362;-74
2020/12/13 02:15:11;;;;;;;;;;;;;;;;;;5031972;28;19952;-74
2020/12/13 02:17:37;;;;;;;;;;;;;;;;;;5031856;28;20047;-73
2020/12/13 02:20:03;;;;;;;;;;;;;;;;;;5031729;28;20008;-74
2020/12/13 02:22:29;;;;;;;;;;;;;;;;;;5031809;28;20391;-73
2020/12/13 02:24:55;;;;;;;;;;;;;;;;;;5033045;28;19913;-74
2020/12/13 02:27:20;;;;;;;;;;;;;;;;;;5032992;28;19909;-73
2020/12/13 02:29:46;;;;;;;;;;;;;;;;;;5031544;28;20346;-74
2020/12/13 02:32:12;;;;;;;;;;;;;;;;;;5031755;28;19909;-74
2020/12/13 02:34:38;;;;;;;;;;;;;;;;;;5031587;28;19963;-74
2020/12/13 02:37:04;;;;;;;;;;;;;;;;;;5031841;28;19913;-73
2020/12/13 02:39:30;;;;;;;;;;;;;;;;;;5048829;28;19967;-73
2020/12/13 02:41:56;;;;;;;;;;;;;;;;;;5035702;28;19910;-73
2020/12/13 02:44:22;;;;;;;;;;;;;;;;;;5033288;28;19916;-74
2020/12/13 02:46:48;;;;;;;;;;;;;;;;;;5051270;28;20335;-74
2020/12/13 02:49:14;;;;;;;;;;;;;;;;;;5051319;28;19959;-74
2020/12/13 02:51:40;;;;;;;;;;;;;;;;;;5051353;28;19948;-74
2020/12/13 02:54:06;;;;;;;;;;;;;;;;;;5051411;28;19959;-74
2020/12/13 02:56:32;;;;;;;;;;;;;;;;;;5051243;28;19912;-74
2020/12/13 02:58:57;;;;;;;;;;;;;;;;;;5050958;28;19960;-73
2020/12/13 03:01:23;;;;;;;;;;;;;;;;;;5051183;28;19916;-74
2020/12/13 03:03:49;;;;;;;;;;;;;;;;;;5051316;28;19909;-73
2020/12/13 03:06:15;;;;;;;;;;;;;;;;;;5051146;28;20276;-74
2020/12/13 03:08:41;;;;;;;;;;;;;;;;;;5050995;28;19909;-74
2020/12/13 03:11:07;;;;;;;;;;;;;;;;;;5041658;28;19933;-74
2020/12/13 03:13:33;;;;;;;;;;;;;;;;;;5031301;28;20348;-74
2020/12/13 03:15:59;;;;;;;;;;;;;;;;;;5032762;28;20287;-74
2020/12/13 03:18:25;;;;;;;;;;;;;;;;;;5031608;28;19936;-74
2020/12/13 03:20:51;;;;;;;;;;;;;;;;;;5031412;28;20044;-73
2020/12/13 03:23:17;;;;;;;;;;;;;;;;;;5031385;28;19959;-73
2020/12/13 03:25:43;;;;;;;;;;;;;;;;;;5030866;28;19949;-74
2020/12/13 03:28:09;;;;;;;;;;;;;;;;;;5031889;28;20141;-74
2020/12/13 03:30:35;;;;;;;;;;;;;;;;;;5032978;28;19913;-74
2020/12/13 03:33:01;;;;;;;;;;;;;;;;;;5032503;28;19924;-74
2020/12/13 03:35:27;;;;;;;;;;;;;;;;;;5032379;28;19909;-73
2020/12/13 03:37:53;;;;;;;;;;;;;;;;;;5036355;28;19932;-73
2020/12/13 03:40:19;;;;;;;;;;;;;;;;;;5048475;28;20391;-73
2020/12/13 03:42:44;;;;;;;;;;;;;;;;;;5030173;28;19971;-75
2020/12/13 03:45:10;;;;;;;;;;;;;;;;;;5030527;28;19960;-74
2020/12/13 03:47:36;;;;;;;;;;;;;;;;;;5030194;28;19912;-73
2020/12/13 03:50:02;;;;;;;;;;;;;;;;;;5031833;28;19949;-73
2020/12/13 03:52:28;;;;;;;;;;;;;;;;;;5030384;28;19913;-73
2020/12/13 03:54:54;;;;;;;;;;;;;;;;;;5030121;28;19957;-74
2020/12/13 03:57:20;;;;;;;;;;;;;;;;;;5029940;28;19960;-73
2020/12/13 03:59:46;;;;;;;;;;;;;;;;;;5031574;28;19948;-73
2020/12/13 04:02:12;;;;;;;;;;;;;;;;;;5030282;28;20395;-74
2020/12/13 04:04:38;;;;;;;;;;;;;;;;;;5049871;28;19960;-73
2020/12/13 04:07:04;;;;;;;;;;;;;;;;;;5051075;28;19958;-73
2020/12/13 04:09:29;;;;;;;;;;;;;;;;;;5049639;28;19909;-74
2020/12/13 04:11:55;;;;;;;;;;;;;;;;;;5033417;28;19909;-73
2020/12/13 04:14:21;;;;;;;;;;;;;;;;;;5030043;28;19932;-73
2020/12/13 04:16:47;;;;;;;;;;;;;;;;;;5029911;28;20044;-74
2020/12/13 04:19:13;;;;;;;;;;;;;;;;;;5032372;28;19971;-73
2020/12/13 04:21:39;;;;;;;;;;;;;;;;;;5034222;28;19948;-73
2020/12/13 04:24:05;;;;;;;;;;;;;;;;;;5034414;28;19959;-73
2020/12/13 04:26:31;;;;;;;;;;;;;;;;;;5033959;28;19909;-74
2020/12/13 04:28:57;;;;;;;;;;;;;;;;;;5033672;28;20417;-73
2020/12/13 04:31:23;;;;;;;;;;;;;;;;;;5033776;28;19953;-73
2020/12/13 04:33:49;;;;;;;;;;;;;;;;;;5033789;28;19940;-72
2020/12/13 04:36:15;;;;;;;;;;;;;;;;;;5033828;28;20350;-74
2020/12/13 04:38:41;;;;;;;;;;;;;;;;;;5043866;28;19983;-74
2020/12/13 04:41:07;;;;;;;;;;;;;;;;;;5045498;28;19960;-71
2020/12/13 04:43:32;;;;;;;;;;;;;;;;;;5053728;28;19944;-73
2020/12/13 04:45:58;;;;;;;;;;;;;;;;;;5054171;28;20294;-74
2020/12/13 04:48:24;;;;;;;;;;;;;;;;;;5053341;28;19912;-73
2020/12/13 04:50:50;;;;;;;;;;;;;;;;;;5053293;28;19970;-73
2020/12/13 04:53:16;;;;;;;;;;;;;;;;;;5054651;28;20002;-74
2020/12/13 04:55:42;;;;;;;;;;;;;;;;;;5053149;28;19912;-73
2020/12/13 04:58:08;;;;;;;;;;;;;;;;;;5053178;28;19996;-74
2020/12/13 05:00:34;;;;;;;;;;;;;;;;;;5052760;28;20347;-73
2020/12/13 05:03:00;;;;;;;;;;;;;;;;;;5053611;28;19980;-73
2020/12/13 05:05:26;;;;;;;;;;;;;;;;;;5053289;28;19924;-74
2020/12/13 05:07:52;;;;;;;;;;;;;;;;;;5053027;28;19909;-74
2020/12/13 05:10:18;;;;;;;;;;;;;;;;;;5050230;28;19913;-73
2020/12/13 05:12:44;;;;;;;;;;;;;;;;;;5033095;28;20474;-73
2020/12/13 05:15:11;;;;;;;;;;;;;;;;;;5033118;28;19909;-73
2020/12/13 05:17:37;;;;;;;;;;;;;;;;;;5032903;28;19916;-74
2020/12/13 05:20:02;;;;;;;;;;;;;;;;;;5034283;28;19956;-73
2020/12/13 05:22:28;;;;;;;;;;;;;;;;;;5033608;28;19909;-74
2020/12/13 05:24:54;;;;;;;;;;;;;;;;;;5033272;28;19925;-74
2020/12/13 05:27:21;;;;;;;;;;;;;;;;;;5032751;28;19909;-73
2020/12/13 05:29:46;;;;;;;;;;;;;;;;;;5031479;28;19913;-73
2020/12/13 05:32:13;;;;;;;;;;;;;;;;;;5032785;28;19948;-73
2020/12/13 05:34:39;;;;;;;;;;;;;;;;;;5033591;28;20003;-73
2020/12/13 05:37:05;;;;;;;;;;;;;;;;;;5032897;28;19920;-74
2020/12/13 05:39:31;;;;;;;;;;;;;;;;;;5049976;28;19917;-74
2020/12/13 05:41:57;;;;;;;;;;;;;;;;;;5036228;28;19916;-73
2020/12/13 05:52:18;;;;;;;;;;;;;;;;;;5033781;28;19948;-74
2020/12/13 05:54:44;;;;;;;;;;;;;;;;;;5032755;28;19964;-73
2020/12/13 05:57:10;;;;;;;;;;;;;;;;;;5033589;28;19941;-73
2020/12/13 05:59:36;;;;;;;;;;;;;;;;;;5032320;28;19959;-74
2020/12/13 06:02:02;;;;;;;;;;;;;;;;;;5032900;28;19913;-73
2020/12/13 06:04:28;;;;;;;;;;;;;;;;;;5032448;28;20391;-73
2020/12/13 06:06:54;;;;;;;;;;;;;;;;;;5032380;28;20009;-73
2020/12/13 06:09:20;;;;;;;;;;;;;;;;;;5047513;28;19951;-73
2020/12/13 06:11:46;;;;;;;;;;;;;;;;;;5037241;28;19932;-72
2020/12/13 06:14:12;;;;;;;;;;;;;;;;;;5032228;28;20385;-71
2020/12/13 06:16:38;;;;;;;;;;;;;;;;;;5032278;28;20006;-71
2020/12/13 06:19:03;;;;;;;;;;;;;;;;;;5031911;28;19913;-72
2020/12/13 06:21:30;;;;;;;;;;;;;;;;;;5031771;28;20443;-72
2020/12/13 06:23:56;;;;;;;;;;;;;;;;;;5031919;28;19916;-72
2020/12/13 06:26:22;;;;;;;;;;;;;;;;;;5031929;28;20422;-72
2020/12/13 06:28:48;;;;;;;;;;;;;;;;;;5031429;28;19952;-72
2020/12/13 06:31:14;;;;;;;;;;;;;;;;;;5031941;28;20006;-72
2020/12/13 06:33:40;;;;;;;;;;;;;;;;;;5031545;28;20006;-72
2020/12/13 06:36:06;;;;;;;;;;;;;;;;;;5045387;28;19969;-72
2020/12/13 06:38:32;;;;;;;;;;;;;;;;;;5051194;28;19909;-72
2020/12/13 06:40:58;;;;;;;;;;;;;;;;;;5043941;28;19956;-72
2020/12/13 06:43:24;;;;;;;;;;;;;;;;;;5031568;28;19913;-72
2020/12/13 06:45:50;;;;;;;;;;;;;;;;;;5031461;28;19952;-72
2020/12/13 06:48:16;;;;;;;;;;;;;;;;;;5031601;28;19971;-72
2020/12/13 06:50:42;;;;;;;;;;;;;;;;;;5031646;28;19913;-72
2020/12/13 06:53:08;;;;;;;;;;;;;;;;;;5035714;28;19967;-72
2020/12/13 06:55:34;;;;;;;;;;;;;;;;;;5050587;28;20346;-72
2020/12/13 06:58:00;;;;;;;;;;;;;;;;;;5047684;28;19909;-73
2020/12/13 07:00:26;;;;;;;;;;;;;;;;;;5047453;28;19962;-74
2020/12/13 07:02:52;;;;;;;;;;;;;;;;;;5047674;28;19958;-74
2020/12/13 07:05:18;;;;;;;;;;;;;;;;;;5047592;28;19912;-75
2020/12/13 07:07:47;;;;;;;;;;;;;;;;;;5050306;28;19913;-75
2020/12/13 07:10:13;;;;;;;;;;;;;;;;;;5048687;28;19920;-74
2020/12/13 07:12:39;;;;;;;;;;;;;;;;;;5033620;28;19952;-74
2020/12/13 07:15:05;;;;;;;;;;;;;;;;;;5050924;28;19913;-74
2020/12/13 07:17:31;;;;;;;;;;;;;;;;;;5052636;28;19955;-74
2020/12/13 07:19:57;;;;;;;;;;;;;;;;;;5052693;28;20059;-74
2020/12/13 07:22:23;;;;;;;;;;;;;;;;;;5051210;28;19916;-75
2020/12/13 07:24:49;;;;;;;;;;;;;;;;;;5051024;28;19908;-74
2020/12/13 07:27:15;;;;;;;;;;;;;;;;;;5050282;28;19912;-75
2020/12/13 07:29:41;;;;;;;;;;;;;;;;;;5046415;28;19960;-75
2020/12/13 07:32:07;;;;;;;;;;;;;;;;;;5050097;28;20381;-75
2020/12/13 07:34:33;;;;;;;;;;;;;;;;;;5050431;28;20291;-75
2020/12/13 07:36:59;;;;;;;;;;;;;;;;;;5050646;28;19909;-75
2020/12/13 07:39:25;;;;;;;;;;;;;;;;;;5050293;28;20063;-75
2020/12/13 07:41:51;;;;;;;;;;;;;;;;;;5050089;28;19909;-75
2020/12/13 07:44:17;;;;;;;;;;;;;;;;;;5050067;28;19991;-75
2020/12/13 07:46:43;;;;;;;;;;;;;;;;;;5050314;28;20291;-75
2020/12/13 07:49:09;;;;;;;;;;;;;;;;;;5050057;28;19913;-75
2020/12/13 07:51:35;;;;;;;;;;;;;;;;;;5049604;28;20314;-75
2020/12/13 07:54:01;;;;;;;;;;;;;;;;;;5049430;28;19908;-75
2020/12/13 07:56:27;;;;;;;;;;;;;;;;;;5050169;28;20367;-75
2020/12/13 07:58:53;;;;;;;;;;;;;;;;;;5049761;28;19999;-75
2020/12/13 08:01:19;;;;;;;;;;;;;;;;;;5050497;28;20007;-75
2020/12/13 08:03:45;;;;;;;;;;;;;;;;;;5050351;28;19952;-75
2020/12/13 08:06:10;;;;;;;;;;;;;;;;;;5050119;28;19909;-75
2020/12/13 08:08:36;;;;;;;;;;;;;;;;;;5048600;28;20416;-75
2020/12/13 08:11:02;;;;;;;;;;;;;;;;;;5051058;28;20371;-75
2020/12/13 08:13:28;;;;;;;;;;;;;;;;;;5049853;28;19909;-75
2020/12/13 08:15:54;;;;;;;;;;;;;;;;;;5050047;28;19920;-75
2020/12/13 08:18:20;;;;;;;;;;;;;;;;;;5049817;28;19948;-75
2020/12/13 08:20:46;;;;;;;;;;;;;;;;;;5049897;28;19971;-75
2020/12/13 08:23:12;;;;;;;;;;;;;;;;;;5050005;28;19912;-75
2020/12/13 08:25:38;;;;;;;;;;;;;;;;;;5049931;28;19941;-75
2020/12/13 08:28:04;;;;;;;;;;;;;;;;;;5049293;28;19920;-75
2020/12/13 08:30:30;;;;;;;;;;;;;;;;;;5051066;28;20279;-75
2020/12/13 08:32:56;;;;;;;;;;;;;;;;;;5049682;28;20315;-75
2020/12/13 08:35:23;;;;;;;;;;;;;;;;;;5050059;28;19916;-75
2020/12/13 08:37:49;;;;;;;;;;;;;;;;;;5046878;28;20376;-75
2020/12/13 08:40:15;;;;;;;;;;;;;;;;;;5040215;28;19967;-75
2020/12/13 08:42:41;;;;;;;;;;;;;;;;;;5048698;28;19943;-75
2020/12/13 08:45:07;;;;;;;;;;;;;;;;;;5048845;28;20286;-75
2020/12/13 08:47:33;;;;;;;;;;;;;;;;;;5051040;28;20004;-74
2020/12/13 08:49:59;;;;;;;;;;;;;;;;;;5051794;28;19920;-75
2020/12/13 08:52:25;;;;;;;;;;;;;;;;;;5056767;28;20306;-75
2020/12/13 08:54:50;;;;;;;;;;;;;;;;;;5049662;28;20055;-75
2020/12/13 08:57:16;;;;;;;;;;;;;;;;;;5048996;28;20004;-75
2020/12/13 08:59:42;;;;;;;;;;;;;;;;;;5048989;28;19964;-74
2020/12/13 09:02:08;;;;;;;;;;;;;;;;;;5049184;28;19936;-75
2020/12/13 09:04:35;;;;;;;;;;;;;;;;;;5050740;28;19966;-75
2020/12/13 09:07:01;;;;;;;;;;;;;;;;;;5053416;28;19936;-76
2020/12/13 09:09:27;;;;;;;;;;;;;;;;;;5053021;28;20379;-75
2020/12/13 09:11:53;;;;;;;;;;;;;;;;;;5037945;28;20267;-75
2020/12/13 09:14:18;;;;;;;;;;;;;;;;;;5033600;28;20007;-76
2020/12/13 09:16:44;;;;;;;;;;;;;;;;;;5034766;28;19955;-75
2020/12/13 09:19:10;;;;;;;;;;;;;;;;;;5033084;28;19960;-75
2020/12/13 09:21:36;;;;;;;;;;;;;;;;;;5034454;28;19959;-75
2020/12/13 09:24:02;;;;;;;;;;;;;;;;;;5034583;28;19909;-76
2020/12/13 09:26:28;;;;;;;;;;;;;;;;;;5033190;28;19910;-75
2020/12/13 09:28:54;;;;;;;;;;;;;;;;;;5033133;28;19921;-75
2020/12/13 09:31:20;;;;;;;;;;;;;;;;;;5034569;28;19909;-76
2020/12/13 09:33:46;;;;;;;;;;;;;;;;;;5033240;28;19924;-76
2020/12/13 09:36:12;;;;;;;;;;;;;;;;;;5033545;28;19956;-76
2020/12/13 09:38:38;;;;;;;;;;;;;;;;;;5042994;28;19923;-76
2020/12/13 09:41:04;;;;;;;;;;;;;;;;;;5045049;28;19948;-75
2020/12/13 09:43:30;;;;;;;;;;;;;;;;;;5053484;28;19909;-76
2020/12/13 09:45:55;;;;;;;;;;;;;;;;;;5053705;28;20330;-76
2020/12/13 09:48:22;;;;;;;;;;;;;;;;;;5053653;28;20271;-76
2020/12/13 09:50:48;;;;;;;;;;;;;;;;;;5062396;28;19909;-75
2020/12/13 09:53:13;;;;;;;;;;;;;;;;;;5056824;28;19927;-76
2020/12/13 09:55:39;;;;;;;;;;;;;;;;;;5056509;28;19931;-76
2020/12/13 09:58:05;;;;;;;;;;;;;;;;;;5056573;28;20263;-76
2020/12/13 10:00:31;;;;;;;;;;;;;;;;;;5054162;28;19913;-76
2020/12/13 10:02:57;;;;;;;;;;;;;;;;;;5052876;28;19959;-76
2020/12/13 10:05:29;;;;;;;;;;;;;;;;;;5052517;28;19944;-76
2020/12/13 10:10:40;;;;;;;;;;;;;;;;;;5048443;28;20306;-76
2020/12/13 10:13:05;;;;;;;;;;;;;;;;;;5052174;28;19909;-75
2020/12/13 10:15:31;;;;;;;;;;;;;;;;;;5051621;28;20391;-75
2020/12/13 10:17:57;;;;;;;;;;;;;;;;;;5051827;28;19909;-76
2020/12/13 10:20:23;;;;;;;;;;;;;;;;;;5052388;28;19967;-76
2020/12/13 10:22:49;;;;;;;;;;;;;;;;;;5051983;28;19967;-76
2020/12/13 10:25:15;;;;;;;;;;;;;;;;;;5052065;28;19905;-76
2020/12/13 10:27:41;;;;;;;;;;;;;;;;;;5051765;28;19916;-75
2020/12/13 10:30:07;;;;;;;;;;;;;;;;;;5052033;28;19943;-76
2020/12/13 10:32:33;;;;;;;;;;;;;;;;;;5052071;28;19909;-76
2020/12/13 10:34:59;;;;;;;;;;;;;;;;;;5050988;28;19917;-75
2020/12/13 10:37:25;;;;;;;;;;;;;;;;;;5051440;28;19909;-75
2020/12/13 10:39:51;;;;;;;;;;;;;;;;;;5047030;28;20334;-75
2020/12/13 10:42:16;;;;;;;;;;;;;;;;;;5052366;28;20417;-76
2020/12/13 10:44:42;;;;;;;;;;;;;;;;;;5051313;28;19974;-75
2020/12/13 10:47:08;;;;;;;;;;;;;;;;;;5051451;28;19976;-76
2020/12/13 10:49:34;;;;;;;;;;;;;;;;;;5051049;28;19962;-74
2020/12/13 10:52:01;;;;;;;;;;;;;;;;;;5051165;28;19913;-74
2020/12/13 10:54:29;;;;;;;;;;;;;;;;;;5051609;28;19909;-74
2020/12/13 10:56:55;;;;;;;;;;;;;;;;;;5051051;28;19913;-74
2020/12/13 10:59:21;;;;;;;;;;;;;;;;;;5050672;28;20327;-75
2020/12/13 11:01:47;;;;;;;;;;;;;;;;;;5051444;28;19909;-75
2020/12/13 11:04:13;;;;;;;;;;;;;;;;;;5050844;28;19909;-75
2020/12/13 11:06:39;;;;;;;;;;;;;;;;;;5051121;28;20336;-75
2020/12/13 11:09:05;;;;;;;;;;;;;;;;;;5051700;28;20375;-75
2020/12/13 11:11:31;;;;;;;;;;;;;;;;;;5050621;28;19959;-75
2020/12/13 11:13:57;;;;;;;;;;;;;;;;;;5050772;28;19909;-74
2020/12/13 11:16:22;;;;;;;;;;;;;;;;;;5050867;28;19909;-75
2020/12/13 11:18:48;;;;;;;;;;;;;;;;;;5050466;28;19909;-75
2020/12/13 11:21:14;;;;;;;;;;;;;;;;;;5050352;28;19963;-75
2020/12/13 11:23:40;;;;;;;;;;;;;;;;;;5050829;28;19908;-75
2020/12/13 11:26:06;;;;;;;;;;;;;;;;;;5050847;28;20335;-75
2020/12/13 11:28:32;;;;;;;;;;;;;;;;;;5050493;28;19916;-75
2020/12/13 11:30:58;;;;;;;;;;;;;;;;;;5050852;28;19909;-74
2020/12/13 11:33:24;;;;;;;;;;;;;;;;;;5056658;28;19948;-75
2020/12/13 11:35:50;;;;;;;;;;;;;;;;;;5048312;28;19913;-75
2020/12/13 11:38:17;;;;;;;;;;;;;;;;;;5045496;28;20017;-75
2020/12/13 11:40:43;;;;;;;;;;;;;;;;;;5029793;28;19962;-75
2020/12/13 11:43:09;;;;;;;;;;;;;;;;;;5031688;28;19965;-75
2020/12/13 11:45:35;;;;;;;;;;;;;;;;;;5030054;28;19959;-75
2020/12/13 11:48:02;;;;;;;;;;;;;;;;;;5029564;28;19909;-75
2020/12/13 11:50:28;;;;;;;;;;;;;;;;;;5030996;28;19963;-75
2020/12/13 11:52:54;;;;;;;;;;;;;;;;;;5031594;28;20361;-75
2020/12/13 11:55:20;;;;;;;;;;;;;;;;;;5031508;28;19955;-75
2020/12/13 11:57:47;;;;;;;;;;;;;;;;;;5031014;28;20002;-75
2020/12/13 12:00:12;;;;;;;;;;;;;;;;;;5031250;28;19914;-75
2020/12/13 12:02:38;;;;;;;;;;;;;;;;;;5031239;28;20486;-75
2020/12/13 12:05:04;;;;;;;;;;;;;;;;;;5031251;28;20371;-75
2020/12/13 12:07:30;;;;;;;;;;;;;;;;;;5045636;28;20386;-76
2020/12/13 12:09:56;;;;;;;;;;;;;;;;;;5035191;28;19909;-76
2020/12/13 12:12:22;;;;;;;;;;;;;;;;;;5031328;28;19909;-76
2020/12/13 12:14:48;;;;;;;;;;;;;;;;;;5031516;28;19909;-75
2020/12/13 12:17:14;;;;;;;;;;;;;;;;;;5031814;28;20012;-75
2020/12/13 12:19:40;;;;;;;;;;;;;;;;;;5032049;28;19964;-76
2020/12/13 12:22:06;;;;;;;;;;;;;;;;;;5030826;28;19932;-75
2020/12/13 12:24:32;;;;;;;;;;;;;;;;;;5030186;28;19952;-75
2020/12/13 12:27:00;;;;;;;;;;;;;;;;;;5029847;28;20279;-75
2020/12/13 12:29:26;;;;;;;;;;;;;;;;;;5029693;28;20420;-76
2020/12/13 12:31:52;;;;;;;;;;;;;;;;;;5029646;28;19952;-75
2020/12/13 12:34:18;;;;;;;;;;;;;;;;;;5029916;28;19909;-76
2020/12/13 12:36:44;;;;;;;;;;;;;;;;;;5037548;28;19967;-76
2020/12/13 12:39:10;;;;;;;;;;;;;;;;;;5040305;28;19952;-76
2020/12/13 12:41:36;;;;;;;;;;;;;;;;;;5033979;28;20398;-75
2020/12/13 12:44:02;;;;;;;;;;;;;;;;;;5033962;28;20641;-76
2020/12/13 12:46:28;;;;;;;;;;;;;;;;;;5039846;28;19951;-75
2020/12/13 12:48:54;;;;;;;;;;;;;;;;;;5053255;28;19917;-76
2020/12/13 12:51:20;;;;;;;;;;;;;;;;;;5053428;28;19975;-75
2020/12/13 12:53:46;;;;;;;;;;;;;;;;;;5053557;28;20284;-76
2020/12/13 12:56:12;;;;;;;;;;;;;;;;;;5053675;28;20039;-75
2020/12/13 13:01:16;;;;;;;;;;;;;;;;;;5055398;28;20408;-77
2020/12/13 13:03:42;;;;;;;;;;;;;;;;;;5053868;28;19992;-76
2020/12/13 13:08:44;;;;;;;;;;;;;;;;;;5053088;28;19909;-75
2020/12/13 13:11:17;;;;;;;;;;;;;;;;;;5045610;28;19909;-75
2020/12/13 13:13:46;;;;;;;;;;;;;;;;;;5047849;28;19913;-74
2020/12/13 13:16:12;;;;;;;;;;;;;;;;;;5050566;28;19976;-75
2020/12/13 13:18:38;;;;;;;;;;;;;;;;;;5047995;28;20043;-75
2020/12/13 13:21:04;;;;;;;;;;;;;;;;;;5035497;28;19952;-76
2020/12/13 13:23:30;;;;;;;;;;;;;;;;;;5033870;28;19909;-75
2020/12/13 13:25:56;;;;;;;;;;;;;;;;;;5033573;28;19924;-75
2020/12/13 13:28:22;;;;;;;;;;;;;;;;;;5033164;28;20287;-75
2020/12/13 13:30:48;;;;;;;;;;;;;;;;;;5033199;28;19988;-75
2020/12/13 13:33:14;;;;;;;;;;;;;;;;;;5032993;28;19939;-76
2020/12/13 13:35:40;;;;;;;;;;;;;;;;;;5033073;28;19982;-76
2020/12/13 13:38:06;;;;;;;;;;;;;;;;;;5051076;28;20385;-75
2020/12/13 13:40:32;;;;;;;;;;;;;;;;;;5032545;28;20004;-75
2020/12/13 13:43:01;;;;;;;;;;;;;;;;;;5032591;28;19983;-75
2020/12/13 13:50:50;;;;;;;;;;;;;;;;;;5032601;28;19960;-75
2020/12/13 13:53:16;;;;;;;;;;;;;;;;;;5032790;28;19952;-75
2020/12/13 13:56:15;;;;;;;;;;;;;;;;;;5032753;28;20042;-75
2020/12/13 13:58:38;;;;;;;;;;;;;;;;;;5034347;28;19916;-76
2020/12/13 14:01:04;;;;;;;;;;;;;;;;;;5032437;28;19956;-75
2020/12/13 14:03:30;;;;;;;;;;;;;;;;;;5032363;28;19952;-75
2020/12/13 14:06:01;;;;;;;;;;;;;;;;;;5033589;28;20178;-75
2020/12/13 14:08:45;;;;;;;;;;;;;;;;;;5052120;28;20012;-76
2020/12/13 14:11:11;;;;;;;;;;;;;;;;;;5052076;28;20295;-75
2020/12/13 14:13:37;;;;;;;;;;;;;;;;;;5052170;28;20264;-75
2020/12/13 14:16:03;;;;;;;;;;;;;;;;;;5051924;28;19991;-75
2020/12/13 14:18:29;;;;;;;;;;;;;;;;;;5051819;28;19913;-75
2020/12/13 14:20:58;;;;;;;;;;;;;;;;;;5051752;28;19912;-75
2020/12/13 14:23:28;;;;;;;;;;;;;;;;;;5051957;28;20398;-76
2020/12/13 14:25:54;;;;;;;;;;;;;;;;;;5051775;28;19920;-75
2020/12/13 14:28:20;;;;;;;;;;;;;;;;;;5051644;28;19916;-75
2020/12/13 14:30:46;;;;;;;;;;;;;;;;;;5053041;28;19908;-76
2020/12/13 14:33:11;;;;;;;;;;;;;;;;;;5051584;28;20325;-76
2020/12/13 14:35:37;;;;;;;;;;;;;;;;;;5051862;28;19932;-76
2020/12/13 14:38:03;;;;;;;;;;;;;;;;;;5050427;28;20291;-76
2020/12/13 14:40:29;;;;;;;;;;;;;;;;;;5047059;28;19928;-76
2020/12/13 14:42:55;;;;;;;;;;;;;;;;;;5031513;28;20086;-76
2020/12/13 14:45:21;;;;;;;;;;;;;;;;;;5031441;28;19953;-76
2020/12/13 14:47:47;;;;;;;;;;;;;;;;;;5031240;28;19951;-76
2020/12/13 14:50:13;;;;;;;;;;;;;;;;;;5031424;28;20015;-76
2020/12/13 14:52:39;;;;;;;;;;;;;;;;;;5038768;28;19909;-76
2020/12/13 14:55:05;;;;;;;;;;;;;;;;;;5051162;28;19909;-76
2020/12/13 14:57:31;;;;;;;;;;;;;;;;;;5050826;28;20375;-76
2020/12/13 14:59:57;;;;;;;;;;;;;;;;;;5050964;28;19960;-76
2020/12/13 15:02:23;;;;;;;;;;;;;;;;;;5050978;28;19913;-76
2020/12/13 15:04:49;;;;;;;;;;;;;;;;;;5051570;28;19905;-75
2020/12/13 15:07:15;;;;;;;;;;;;;;;;;;5051245;28;19909;-76
2020/12/13 15:09:41;;;;;;;;;;;;;;;;;;5050842;28;19992;-76
2020/12/13 15:12:08;;;;;;;;;;;;;;;;;;5033343;28;19955;-76
2020/12/13 15:19:35;;;;;;;;;;;;;;;;;;5032393;28;19919;-76
2020/12/13 15:22:03;;;;;;;;;;;;;;;;;;5030887;28;19971;-76
2020/12/13 15:24:29;;;;;;;;;;;;;;;;;;5031139;28;19910;-76
2020/12/13 15:26:55;;;;;;;;;;;;;;;;;;5031005;28;20173;-76
2020/12/13 15:29:21;;;;;;;;;;;;;;;;;;5030233;28;19917;-76
2020/12/13 15:31:47;;;;;;;;;;;;;;;;;;5029842;28;19956;-76
2020/12/13 15:34:13;;;;;;;;;;;;;;;;;;5030034;28;19944;-76
2020/12/13 15:36:42;;;;;;;;;;;;;;;;;;5041913;28;19913;-76
2020/12/13 15:39:08;;;;;;;;;;;;;;;;;;5049710;28;19966;-76
2020/12/13 15:41:34;;;;;;;;;;;;;;;;;;5053758;28;19921;-76
2020/12/13 15:44:00;;;;;;;;;;;;;;;;;;5054850;28;19931;-76
2020/12/13 15:46:25;;;;;;;;;;;;;;;;;;5054329;28;19959;-76
2020/12/13 15:48:51;;;;;;;;;;;;;;;;;;5050319;28;19962;-76
2020/12/13 15:51:17;;;;;;;;;;;;;;;;;;5050405;28;19941;-76
2020/12/13 15:53:44;;;;;;;;;;;;;;;;;;5050773;28;19916;-76
2020/12/13 15:56:10;;;;;;;;;;;;;;;;;;5049873;28;20401;-76
2020/12/13 15:58:36;;;;;;;;;;;;;;;;;;5050095;28;19940;-76
2020/12/13 16:01:02;;;;;;;;;;;;;;;;;;5050334;28;20378;-76
2020/12/13 16:03:28;;;;;;;;;;;;;;;;;;5050327;28;19909;-76
2020/12/13 16:05:54;;;;;;;;;;;;;;;;;;5051145;28;19948;-76
2020/12/13 16:08:20;;;;;;;;;;;;;;;;;;5050939;28;19947;-76
2020/12/13 16:10:46;;;;;;;;;;;;;;;;;;5049527;28;19978;-76
2020/12/13 16:13:13;;;;;;;;;;;;;;;;;;5051282;28;19916;-76
2020/12/13 16:15:39;;;;;;;;;;;;;;;;;;5049718;28;19916;-76
2020/12/13 16:18:05;;;;;;;;;;;;;;;;;;5050210;28;19962;-76
2020/12/13 16:20:31;;;;;;;;;;;;;;;;;;5049934;28;19917;-76
2020/12/13 16:22:57;;;;;;;;;;;;;;;;;;5049862;28;20325;-76
2020/12/13 16:25:22;;;;;;;;;;;;;;;;;;5049955;28;19908;-76
2020/12/13 16:27:50;;;;;;;;;;;;;;;;;;5049811;28;19920;-76
2020/12/13 16:30:16;;;;;;;;;;;;;;;;;;5049947;28;19915;-76
2020/12/13 16:32:42;;;;;;;;;;;;;;;;;;5049694;28;20536;-76
2020/12/13 16:35:07;;;;;;;;;;;;;;;;;;5049753;28;19996;-76
2020/12/13 16:37:33;;;;;;;;;;;;;;;;;;5049290;28;19955;-76
2020/12/13 16:39:59;;;;;;;;;;;;;;;;;;5049184;28;19928;-76
2020/12/13 16:42:58;;;;;;;;;;;;;;;;;;5049650;28;19948;-76
2020/12/13 16:45:14;;;;;;;;;;;;;;;;;;5050813;28;19916;-76
2020/12/13 16:48:03;;;;;;;;;;;;;;;;;;5049699;28;19952;-76
2020/12/13 16:55:42;;;;;;;;;;;;;;;;;;5051570;28;20378;-76
2020/12/13 16:58:08;;;;;;;;;;;;;;;;;;5049216;28;19913;-76
2020/12/13 17:00:34;;;;;;;;;;;;;;;;;;5048810;28;19959;-76
2020/12/13 17:03:00;;;;;;;;;;;;;;;;;;5049906;28;19916;-77
2020/12/13 17:05:28;;;;;;;;;;;;;;;;;;5049772;28;20360;-76
2020/12/13 17:07:54;;;;;;;;;;;;;;;;;;5052680;28;20398;-76
2020/12/13 17:10:20;;;;;;;;;;;;;;;;;;5049631;28;19931;-76